createdAt,value
2018-12-09T00:00:09.987Z,3.87
2018-12-09T00:00:22.523Z,3.87
2018-12-09T00:00:34.962Z,3.87
2018-12-09T00:00:47.302Z,3.87
2018-12-09T00:00:59.665Z,3.87
2018-12-09T00:01:11.999Z,3.87
2018-12-09T00:01:24.333Z,3.87
2018-12-09T00:01:36.669Z,3.87
2018-12-09T00:01:49.043Z,3.87
2018-12-09T00:02:01.469Z,3.87
2018-12-09T00:02:14.288Z,3.87
2018-12-09T00:02:26.617Z,3.87
2018-12-09T00:02:38.967Z,3.87
2018-12-09T00:02:51.312Z,3.87
2018-12-09T00:03:05.454Z,3.87
2018-12-09T00:03:17.803Z,3.87
2018-12-09T00:03:30.164Z,3.87
2018-12-09T00:03:42.498Z,3.87
2018-12-09T00:03:54.842Z,3.87
2018-12-09T00:04:07.177Z,3.87
2018-12-09T00:04:19.539Z,3.87
2018-12-09T00:04:31.863Z,3.87
2018-12-09T00:04:44.209Z,3.87
2018-12-09T00:04:56.717Z,3.87
2018-12-09T00:05:09.084Z,3.87
2018-12-09T00:05:21.427Z,3.87
2018-12-09T00:05:33.763Z,3.87
2018-12-09T00:05:46.185Z,3.87
2018-12-09T00:05:58.522Z,5.43
2018-12-09T00:06:10.863Z,5.43
2018-12-09T00:06:23.306Z,5.43
2018-12-09T00:06:35.644Z,5.43
2018-12-09T00:06:47.976Z,5.43
2018-12-09T00:07:00.327Z,5.43
2018-12-09T00:07:12.667Z,5.43
2018-12-09T00:07:25.049Z,5.43
2018-12-09T00:07:37.384Z,5.43
2018-12-09T00:07:49.717Z,5.43
2018-12-09T00:08:02.136Z,5.43
2018-12-09T00:08:14.509Z,5.43
2018-12-09T00:08:26.860Z,5.43
2018-12-09T00:08:39.311Z,5.43
2018-12-09T00:08:51.659Z,5.43
2018-12-09T00:09:04.043Z,5.43
2018-12-09T00:09:16.649Z,5.43
2018-12-09T00:09:28.981Z,5.43
2018-12-09T00:09:41.375Z,5.43
2018-12-09T00:09:53.717Z,5.43
2018-12-09T00:10:06.056Z,5.43
2018-12-09T00:10:18.416Z,5.43
2018-12-09T00:10:30.755Z,5.43
2018-12-09T00:10:43.097Z,5.43
2018-12-09T00:10:55.437Z,5.43
2018-12-09T00:11:07.777Z,5.43
2018-12-09T00:11:20.127Z,5.43
2018-12-09T00:11:32.478Z,5.43
2018-12-09T00:11:45.052Z,5.43
2018-12-09T00:11:57.406Z,5.43
2018-12-09T00:12:09.744Z,5.43
2018-12-09T00:12:22.108Z,5.43
2018-12-09T00:12:34.449Z,5.43
2018-12-09T00:12:46.789Z,5.43
2018-12-09T00:12:59.140Z,5.43
2018-12-09T00:13:11.553Z,5.43
2018-12-09T00:13:23.895Z,5.43
2018-12-09T00:13:36.279Z,5.43
2018-12-09T00:13:48.630Z,5.43
2018-12-09T00:14:00.988Z,5.43
2018-12-09T00:14:13.326Z,5.43
2018-12-09T00:14:25.671Z,5.43
2018-12-09T00:14:38.011Z,5.43
2018-12-09T00:14:50.350Z,5.43
2018-12-09T00:15:02.862Z,5.43
2018-12-09T00:15:15.243Z,5.43
2018-12-09T00:15:27.593Z,5.43
2018-12-09T00:15:39.988Z,5.43
2018-12-09T00:15:52.323Z,5.43
2018-12-09T00:16:04.665Z,7.58
2018-12-09T00:16:17.024Z,7.58
2018-12-09T00:16:29.484Z,7.58
2018-12-09T00:16:41.825Z,7.58
2018-12-09T00:16:54.153Z,7.58
2018-12-09T00:17:06.501Z,7.58
2018-12-09T00:17:18.868Z,7.58
2018-12-09T00:17:31.196Z,7.58
2018-12-09T00:17:43.544Z,7.58
2018-12-09T00:17:55.987Z,7.58
2018-12-09T00:18:08.314Z,7.58
2018-12-09T00:18:20.661Z,7.58
2018-12-09T00:18:33.007Z,7.58
2018-12-09T00:18:45.443Z,7.58
2018-12-09T00:18:57.998Z,7.58
2018-12-09T00:19:10.345Z,7.58
2018-12-09T00:19:22.713Z,7.58
2018-12-09T00:19:35.082Z,7.58
2018-12-09T00:19:47.564Z,7.58
2018-12-09T00:19:59.899Z,7.58
2018-12-09T00:20:12.230Z,7.58
2018-12-09T00:20:24.571Z,7.58
2018-12-09T00:20:36.911Z,7.58
2018-12-09T00:20:49.259Z,7.58
2018-12-09T00:21:01.619Z,7.58
2018-12-09T00:21:13.966Z,7.58
2018-12-09T00:21:26.306Z,7.58
2018-12-09T00:21:38.635Z,7.58
2018-12-09T00:21:50.953Z,7.58
2018-12-09T00:22:03.282Z,7.58
2018-12-09T00:22:15.707Z,7.58
2018-12-09T00:22:28.052Z,7.58
2018-12-09T00:22:40.414Z,7.58
2018-12-09T00:22:52.868Z,7.58
2018-12-09T00:23:05.207Z,7.58
2018-12-09T00:23:17.554Z,7.58
2018-12-09T00:23:29.993Z,7.58
2018-12-09T00:23:42.334Z,7.58
2018-12-09T00:23:54.690Z,7.58
2018-12-09T00:24:07.030Z,7.58
2018-12-09T00:24:19.456Z,7.58
2018-12-09T00:24:31.801Z,7.58
2018-12-09T00:24:44.214Z,7.58
2018-12-09T00:24:56.821Z,7.58
2018-12-09T00:25:09.259Z,7.58
2018-12-09T00:25:21.649Z,7.58
2018-12-09T00:25:33.994Z,7.58
2018-12-09T00:25:46.341Z,7.58
2018-12-09T00:25:58.663Z,5.3
2018-12-09T00:26:11.004Z,5.3
2018-12-09T00:26:23.508Z,5.3
2018-12-09T00:26:35.837Z,5.3
2018-12-09T00:26:48.287Z,5.3
2018-12-09T00:27:00.633Z,5.3
2018-12-09T00:27:12.977Z,5.3
2018-12-09T00:27:25.301Z,5.3
2018-12-09T00:27:37.634Z,5.3
2018-12-09T00:27:49.970Z,5.3
2018-12-09T00:28:02.481Z,5.3
2018-12-09T00:28:14.820Z,5.3
2018-12-09T00:28:27.207Z,5.3
2018-12-09T00:28:39.689Z,5.3
2018-12-09T00:28:52.157Z,5.3
2018-12-09T00:29:04.588Z,5.3
2018-12-09T00:29:16.925Z,5.3
2018-12-09T00:29:29.268Z,5.3
2018-12-09T00:29:41.616Z,5.3
2018-12-09T00:29:53.964Z,5.3
2018-12-09T00:30:06.465Z,5.3
2018-12-09T00:30:18.794Z,5.3
2018-12-09T00:30:31.222Z,5.3
2018-12-09T00:30:43.568Z,5.3
2018-12-09T00:30:55.913Z,5.3
2018-12-09T00:31:08.254Z,5.3
2018-12-09T00:31:20.612Z,5.3
2018-12-09T00:31:32.959Z,5.3
2018-12-09T00:31:45.309Z,5.3
2018-12-09T00:31:57.656Z,5.3
2018-12-09T00:32:10.098Z,5.3
2018-12-09T00:32:22.444Z,5.3
2018-12-09T00:32:34.783Z,5.3
2018-12-09T00:32:47.204Z,5.3
2018-12-09T00:32:59.578Z,5.3
2018-12-09T00:33:11.927Z,5.3
2018-12-09T00:33:24.300Z,5.3
2018-12-09T00:33:36.639Z,5.3
2018-12-09T00:33:49.000Z,5.3
2018-12-09T00:34:01.376Z,5.3
2018-12-09T00:34:13.757Z,5.3
2018-12-09T00:34:26.121Z,5.3
2018-12-09T00:34:38.467Z,5.3
2018-12-09T00:34:50.975Z,5.3
2018-12-09T00:35:03.333Z,5.3
2018-12-09T00:35:15.675Z,5.3
2018-12-09T00:35:28.009Z,5.3
2018-12-09T00:35:40.337Z,5.3
2018-12-09T00:35:52.687Z,5.3
2018-12-09T00:36:05.140Z,4.4
2018-12-09T00:36:17.476Z,4.4
2018-12-09T00:36:29.800Z,4.4
2018-12-09T00:36:42.153Z,4.4
2018-12-09T00:36:54.508Z,4.4
2018-12-09T00:37:06.856Z,4.4
2018-12-09T00:37:19.296Z,4.4
2018-12-09T00:37:31.642Z,4.4
2018-12-09T00:37:43.990Z,4.4
2018-12-09T00:37:56.418Z,4.4
2018-12-09T00:38:08.780Z,4.4
2018-12-09T00:38:21.118Z,4.4
2018-12-09T00:38:33.466Z,4.4
2018-12-09T00:38:45.804Z,4.4
2018-12-09T00:38:58.143Z,4.4
2018-12-09T00:39:10.493Z,4.4
2018-12-09T00:39:22.849Z,4.4
2018-12-09T00:39:35.174Z,4.4
2018-12-09T00:39:47.500Z,4.4
2018-12-09T00:39:59.908Z,4.4
2018-12-09T00:40:12.239Z,4.4
2018-12-09T00:40:24.593Z,4.4
2018-12-09T00:40:36.929Z,4.4
2018-12-09T00:40:49.263Z,4.4
2018-12-09T00:41:01.973Z,4.4
2018-12-09T00:41:14.457Z,4.4
2018-12-09T00:41:26.907Z,4.4
2018-12-09T00:41:39.238Z,4.4
2018-12-09T00:41:51.563Z,4.4
2018-12-09T00:42:03.918Z,4.4
2018-12-09T00:42:16.248Z,4.4
2018-12-09T00:42:28.594Z,4.4
2018-12-09T00:42:49.198Z,4.4
2018-12-09T00:43:01.548Z,4.4
2018-12-09T00:43:13.952Z,4.4
2018-12-09T00:43:26.317Z,4.4
2018-12-09T00:43:38.653Z,4.4
2018-12-09T00:43:51.155Z,4.4
2018-12-09T00:44:03.610Z,4.4
2018-12-09T00:44:15.958Z,4.4
2018-12-09T00:44:28.324Z,4.4
2018-12-09T00:44:42.636Z,4.4
2018-12-09T00:44:55.112Z,4.4
2018-12-09T00:45:07.470Z,4.4
2018-12-09T00:45:19.809Z,4.4
2018-12-09T00:45:32.144Z,4.4
2018-12-09T00:45:44.506Z,4.4
2018-12-09T00:45:56.844Z,4.4
2018-12-09T00:46:09.181Z,2.67
2018-12-09T00:46:21.543Z,2.67
2018-12-09T00:46:33.881Z,2.67
2018-12-09T00:46:46.227Z,2.67
2018-12-09T00:46:58.573Z,2.67
2018-12-09T00:47:10.929Z,2.67
2018-12-09T00:47:23.302Z,2.67
2018-12-09T00:47:35.745Z,2.67
2018-12-09T00:47:48.111Z,2.67
2018-12-09T00:48:00.468Z,2.67
2018-12-09T00:48:12.928Z,2.67
2018-12-09T00:48:25.275Z,2.67
2018-12-09T00:48:37.611Z,2.67
2018-12-09T00:48:49.985Z,2.67
2018-12-09T00:49:02.332Z,2.67
2018-12-09T00:49:14.680Z,2.67
2018-12-09T00:49:27.017Z,2.67
2018-12-09T00:49:39.348Z,2.67
2018-12-09T00:49:51.684Z,2.67
2018-12-09T00:50:04.250Z,2.67
2018-12-09T00:50:16.605Z,2.67
2018-12-09T00:50:28.940Z,2.67
2018-12-09T00:50:41.281Z,2.67
2018-12-09T00:50:53.607Z,2.67
2018-12-09T00:51:05.948Z,2.67
2018-12-09T00:51:18.281Z,2.67
2018-12-09T00:51:30.643Z,2.67
2018-12-09T00:51:43.146Z,2.67
2018-12-09T00:51:55.476Z,2.67
2018-12-09T00:52:07.805Z,2.67
2018-12-09T00:52:20.147Z,2.67
2018-12-09T00:52:32.534Z,2.67
2018-12-09T00:52:45.308Z,2.67
2018-12-09T00:52:57.650Z,2.67
2018-12-09T00:53:09.997Z,2.67
2018-12-09T00:53:22.465Z,2.67
2018-12-09T00:53:34.802Z,2.67
2018-12-09T00:53:47.122Z,2.67
2018-12-09T00:53:59.467Z,2.67
2018-12-09T00:54:11.928Z,2.67
2018-12-09T00:54:24.280Z,2.67
2018-12-09T00:54:36.611Z,2.67
2018-12-09T00:54:49.060Z,2.67
2018-12-09T00:55:01.506Z,2.67
2018-12-09T00:55:13.949Z,2.67
2018-12-09T00:55:26.284Z,2.67
2018-12-09T00:55:38.618Z,2.67
2018-12-09T00:55:50.946Z,2.67
2018-12-09T00:56:03.286Z,5.4
2018-12-09T00:56:15.632Z,5.4
2018-12-09T00:56:28.152Z,5.4
2018-12-09T00:56:40.616Z,5.4
2018-12-09T00:56:52.950Z,5.4
2018-12-09T00:57:05.393Z,5.4
2018-12-09T00:57:17.743Z,5.4
2018-12-09T00:57:30.089Z,5.4
2018-12-09T00:57:42.426Z,5.4
2018-12-09T00:57:54.860Z,5.4
2018-12-09T00:58:07.201Z,5.4
2018-12-09T00:58:19.654Z,5.4
2018-12-09T00:58:32.054Z,5.4
2018-12-09T00:58:44.397Z,5.4
2018-12-09T00:58:56.727Z,5.4
2018-12-09T00:59:09.172Z,5.4
2018-12-09T00:59:21.528Z,5.4
2018-12-09T00:59:34.047Z,5.4
2018-12-09T00:59:46.383Z,5.4
2018-12-09T00:59:58.708Z,5.4
2018-12-09T01:00:11.048Z,5.4
2018-12-09T01:00:23.570Z,5.4
2018-12-09T01:00:35.910Z,5.4
2018-12-09T01:00:48.296Z,5.4
2018-12-09T01:01:00.642Z,5.4
2018-12-09T01:01:12.988Z,5.4
2018-12-09T01:01:25.322Z,5.4
2018-12-09T01:01:37.795Z,5.4
2018-12-09T01:01:50.130Z,5.4
2018-12-09T01:02:02.480Z,5.4
2018-12-09T01:02:15.021Z,5.4
2018-12-09T01:02:27.456Z,5.4
2018-12-09T01:02:39.892Z,5.4
2018-12-09T01:02:54.211Z,5.4
2018-12-09T01:03:06.571Z,5.4
2018-12-09T01:03:18.937Z,5.4
2018-12-09T01:03:31.280Z,5.4
2018-12-09T01:03:43.621Z,5.4
2018-12-09T01:03:55.971Z,5.4
2018-12-09T01:04:08.315Z,5.4
2018-12-09T01:04:20.796Z,5.4
2018-12-09T01:04:33.132Z,5.4
2018-12-09T01:04:45.477Z,5.4
2018-12-09T01:04:58.078Z,5.4
2018-12-09T01:05:10.440Z,5.4
2018-12-09T01:05:22.774Z,5.4
2018-12-09T01:05:35.122Z,5.4
2018-12-09T01:05:47.485Z,5.4
2018-12-09T01:05:59.830Z,5.4
2018-12-09T01:06:12.278Z,4.38
2018-12-09T01:06:24.627Z,4.38
2018-12-09T01:06:36.971Z,4.38
2018-12-09T01:06:49.323Z,4.38
2018-12-09T01:07:01.658Z,4.38
2018-12-09T01:07:14.011Z,4.38
2018-12-09T01:07:26.347Z,4.38
2018-12-09T01:07:38.693Z,4.38
2018-12-09T01:07:51.036Z,4.38
2018-12-09T01:08:03.389Z,4.38
2018-12-09T01:08:15.740Z,4.38
2018-12-09T01:08:28.094Z,4.38
2018-12-09T01:08:40.433Z,4.38
2018-12-09T01:08:52.769Z,4.38
2018-12-09T01:09:05.103Z,4.38
2018-12-09T01:09:17.554Z,4.38
2018-12-09T01:09:29.889Z,4.38
2018-12-09T01:09:42.317Z,4.38
2018-12-09T01:09:54.677Z,4.38
2018-12-09T01:10:07.022Z,4.38
2018-12-09T01:10:19.427Z,4.38
2018-12-09T01:10:31.766Z,4.38
2018-12-09T01:10:44.109Z,4.38
2018-12-09T01:10:56.543Z,4.38
2018-12-09T01:11:08.880Z,4.38
2018-12-09T01:11:21.219Z,4.38
2018-12-09T01:11:33.558Z,4.38
2018-12-09T01:11:46.081Z,4.38
2018-12-09T01:11:58.437Z,4.38
2018-12-09T01:12:10.771Z,4.38
2018-12-09T01:12:23.103Z,4.38
2018-12-09T01:12:35.446Z,4.38
2018-12-09T01:12:47.877Z,4.38
2018-12-09T01:13:00.299Z,4.38
2018-12-09T01:13:12.652Z,4.38
2018-12-09T01:13:25.233Z,4.38
2018-12-09T01:13:37.586Z,4.38
2018-12-09T01:13:49.963Z,4.38
2018-12-09T01:14:02.322Z,4.38
2018-12-09T01:14:14.661Z,4.38
2018-12-09T01:14:26.986Z,4.38
2018-12-09T01:14:39.332Z,4.38
2018-12-09T01:14:51.756Z,4.38
2018-12-09T01:15:04.394Z,4.38
2018-12-09T01:15:16.717Z,4.38
2018-12-09T01:15:29.059Z,4.38
2018-12-09T01:15:41.398Z,4.38
2018-12-09T01:15:53.729Z,4.38
2018-12-09T01:16:06.062Z,2.71
2018-12-09T01:16:18.470Z,2.71
2018-12-09T01:16:30.834Z,2.71
2018-12-09T01:16:43.297Z,2.71
2018-12-09T01:16:55.743Z,2.71
2018-12-09T01:17:08.107Z,2.71
2018-12-09T01:17:20.446Z,2.71
2018-12-09T01:17:32.783Z,2.71
2018-12-09T01:17:45.120Z,2.71
2018-12-09T01:17:57.455Z,2.71
2018-12-09T01:18:09.787Z,2.71
2018-12-09T01:18:22.130Z,2.71
2018-12-09T01:18:34.473Z,2.71
2018-12-09T01:18:47.028Z,2.71
2018-12-09T01:18:59.386Z,2.71
2018-12-09T01:19:11.740Z,2.71
2018-12-09T01:19:24.178Z,2.71
2018-12-09T01:19:36.524Z,2.71
2018-12-09T01:19:48.995Z,2.71
2018-12-09T01:20:01.352Z,2.71
2018-12-09T01:20:13.712Z,2.71
2018-12-09T01:20:26.074Z,2.71
2018-12-09T01:20:38.491Z,2.71
2018-12-09T01:20:50.837Z,2.71
2018-12-09T01:21:03.173Z,2.71
2018-12-09T01:21:15.511Z,2.71
2018-12-09T01:21:27.845Z,2.71
2018-12-09T01:21:40.173Z,2.71
2018-12-09T01:21:52.518Z,2.71
2018-12-09T01:22:04.843Z,2.71
2018-12-09T01:22:17.181Z,2.71
2018-12-09T01:22:29.520Z,2.71
2018-12-09T01:22:41.867Z,2.71
2018-12-09T01:22:54.200Z,2.71
2018-12-09T01:23:06.536Z,2.71
2018-12-09T01:23:18.889Z,2.71
2018-12-09T01:23:31.229Z,2.71
2018-12-09T01:23:43.558Z,2.71
2018-12-09T01:23:55.913Z,2.71
2018-12-09T01:24:09.471Z,2.71
2018-12-09T01:24:21.905Z,2.71
2018-12-09T01:24:34.315Z,2.71
2018-12-09T01:24:46.716Z,2.71
2018-12-09T01:24:59.173Z,2.71
2018-12-09T01:25:12.697Z,2.71
2018-12-09T01:25:25.170Z,2.71
2018-12-09T01:25:37.566Z,2.71
2018-12-09T01:25:50.040Z,2.71
2018-12-09T01:26:02.430Z,3.21
2018-12-09T01:26:15.821Z,3.21
2018-12-09T01:26:28.435Z,3.21
2018-12-09T01:26:40.825Z,3.21
2018-12-09T01:26:53.316Z,3.21
2018-12-09T01:27:05.702Z,3.21
2018-12-09T01:27:18.096Z,3.21
2018-12-09T01:27:31.553Z,3.21
2018-12-09T01:27:43.956Z,3.21
2018-12-09T01:27:56.402Z,3.21
2018-12-09T01:28:08.888Z,3.21
2018-12-09T01:28:21.301Z,3.21
2018-12-09T01:28:34.940Z,3.21
2018-12-09T01:28:47.470Z,3.21
2018-12-09T01:28:59.889Z,3.21
2018-12-09T01:29:12.275Z,3.21
2018-12-09T01:29:24.694Z,3.21
2018-12-09T01:29:38.227Z,3.21
2018-12-09T01:29:50.627Z,3.21
2018-12-09T01:30:03.055Z,3.21
2018-12-09T01:30:15.710Z,3.21
2018-12-09T01:30:28.457Z,3.21
2018-12-09T01:30:41.539Z,3.21
2018-12-09T01:30:54.283Z,3.21
2018-12-09T01:31:06.663Z,3.21
2018-12-09T01:31:19.061Z,3.21
2018-12-09T01:31:31.461Z,3.21
2018-12-09T01:31:43.859Z,3.21
2018-12-09T01:31:57.303Z,3.21
2018-12-09T01:32:09.717Z,3.21
2018-12-09T01:32:22.211Z,3.21
2018-12-09T01:32:34.726Z,3.21
2018-12-09T01:32:47.130Z,3.21
2018-12-09T01:33:00.665Z,3.21
2018-12-09T01:33:13.047Z,3.21
2018-12-09T01:33:25.422Z,3.21
2018-12-09T01:33:37.808Z,3.21
2018-12-09T01:33:50.180Z,3.21
2018-12-09T01:34:03.434Z,3.21
2018-12-09T01:34:16.028Z,3.21
2018-12-09T01:34:28.445Z,3.21
2018-12-09T01:34:40.834Z,3.21
2018-12-09T01:34:53.383Z,3.21
2018-12-09T01:35:05.774Z,3.21
2018-12-09T01:35:19.334Z,3.21
2018-12-09T01:35:31.734Z,3.21
2018-12-09T01:35:44.126Z,3.21
2018-12-09T01:35:56.493Z,3.21
2018-12-09T01:36:08.893Z,2.63
2018-12-09T01:36:22.313Z,2.63
2018-12-09T01:36:34.706Z,2.63
2018-12-09T01:36:47.085Z,2.63
2018-12-09T01:36:59.476Z,2.63
2018-12-09T01:37:11.887Z,2.63
2018-12-09T01:37:25.415Z,2.63
2018-12-09T01:37:37.813Z,2.63
2018-12-09T01:37:50.230Z,2.63
2018-12-09T01:38:02.606Z,2.63
2018-12-09T01:38:15.018Z,2.63
2018-12-09T01:38:27.833Z,2.63
2018-12-09T01:38:40.863Z,2.63
2018-12-09T01:38:53.268Z,2.63
2018-12-09T01:39:05.657Z,2.63
2018-12-09T01:39:18.062Z,2.63
2018-12-09T01:39:30.475Z,2.63
2018-12-09T01:39:44.061Z,2.63
2018-12-09T01:39:56.587Z,2.63
2018-12-09T01:40:08.988Z,2.63
2018-12-09T01:40:21.376Z,2.63
2018-12-09T01:40:33.779Z,2.63
2018-12-09T01:40:47.300Z,2.63
2018-12-09T01:40:59.851Z,2.63
2018-12-09T01:41:12.370Z,2.63
2018-12-09T01:41:24.849Z,2.63
2018-12-09T01:41:37.238Z,2.63
2018-12-09T01:41:50.388Z,2.63
2018-12-09T01:42:03.004Z,2.63
2018-12-09T01:42:15.416Z,2.63
2018-12-09T01:42:27.800Z,2.63
2018-12-09T01:42:40.186Z,2.63
2018-12-09T01:42:52.595Z,2.63
2018-12-09T01:43:05.976Z,2.63
2018-12-09T01:43:18.389Z,2.63
2018-12-09T01:43:30.779Z,2.63
2018-12-09T01:43:43.155Z,2.63
2018-12-09T01:43:55.549Z,2.63
2018-12-09T01:44:09.004Z,2.63
2018-12-09T01:44:21.391Z,2.63
2018-12-09T01:44:33.903Z,2.63
2018-12-09T01:44:46.289Z,2.63
2018-12-09T01:45:00.792Z,2.63
2018-12-09T01:45:14.107Z,2.63
2018-12-09T01:45:26.594Z,2.63
2018-12-09T01:45:39.004Z,2.63
2018-12-09T01:45:51.401Z,2.63
2018-12-09T01:46:03.802Z,4.43
2018-12-09T01:46:16.765Z,4.43
2018-12-09T01:46:29.541Z,4.43
2018-12-09T01:46:41.933Z,4.43
2018-12-09T01:46:54.350Z,4.43
2018-12-09T01:47:06.838Z,4.43
2018-12-09T01:47:19.223Z,4.43
2018-12-09T01:47:32.668Z,4.43
2018-12-09T01:47:45.097Z,4.43
2018-12-09T01:47:57.556Z,4.43
2018-12-09T01:48:10.047Z,4.43
2018-12-09T01:48:22.473Z,4.43
2018-12-09T01:48:35.913Z,4.43
2018-12-09T01:48:48.317Z,4.43
2018-12-09T01:49:00.709Z,4.43
2018-12-09T01:49:13.120Z,4.43
2018-12-09T01:49:25.493Z,4.43
2018-12-09T01:49:38.787Z,4.43
2018-12-09T01:49:51.228Z,4.43
2018-12-09T01:50:03.808Z,4.43
2018-12-09T01:50:16.308Z,4.43
2018-12-09T01:50:28.695Z,4.43
2018-12-09T01:50:41.153Z,4.43
2018-12-09T01:50:54.760Z,4.43
2018-12-09T01:51:07.165Z,4.43
2018-12-09T01:51:19.572Z,4.43
2018-12-09T01:51:32.004Z,4.43
2018-12-09T01:51:44.625Z,4.43
2018-12-09T01:51:58.190Z,4.43
2018-12-09T01:52:10.610Z,4.43
2018-12-09T01:52:22.998Z,4.43
2018-12-09T01:52:35.405Z,4.43
2018-12-09T01:52:48.104Z,4.43
2018-12-09T01:53:01.374Z,4.43
2018-12-09T01:53:13.785Z,4.43
2018-12-09T01:53:26.206Z,4.43
2018-12-09T01:53:38.591Z,4.43
2018-12-09T01:53:50.967Z,4.43
2018-12-09T01:54:03.782Z,4.43
2018-12-09T01:54:16.932Z,4.43
2018-12-09T01:54:29.353Z,4.43
2018-12-09T01:54:41.726Z,4.43
2018-12-09T01:54:54.301Z,4.43
2018-12-09T01:55:06.776Z,4.43
2018-12-09T01:55:20.095Z,4.43
2018-12-09T01:55:32.488Z,4.43
2018-12-09T01:55:44.878Z,4.43
2018-12-09T01:55:57.272Z,4.43
2018-12-09T01:56:09.676Z,4.43
2018-12-09T01:56:23.459Z,4.43
2018-12-09T01:56:35.956Z,4.43
2018-12-09T01:56:48.355Z,4.43
2018-12-09T01:57:00.765Z,4.43
2018-12-09T01:57:13.324Z,4.43
2018-12-09T01:57:26.266Z,4.43
2018-12-09T01:57:38.665Z,4.43
2018-12-09T01:57:51.068Z,4.43
2018-12-09T01:58:03.469Z,4.43
2018-12-09T01:58:15.960Z,4.43
2018-12-09T01:58:28.355Z,4.43
2018-12-09T01:58:41.767Z,4.43
2018-12-09T01:58:54.163Z,4.43
2018-12-09T01:59:06.566Z,4.43
2018-12-09T01:59:18.960Z,4.43
2018-12-09T01:59:31.454Z,4.43
2018-12-09T01:59:44.786Z,4.43
2018-12-09T01:59:57.188Z,4.43
2018-12-09T02:00:09.611Z,4.43
2018-12-09T02:00:22.218Z,4.43
2018-12-09T02:00:34.611Z,4.43
2018-12-09T02:00:48.226Z,4.43
2018-12-09T02:01:00.633Z,4.43
2018-12-09T02:01:13.032Z,4.43
2018-12-09T02:01:25.440Z,4.43
2018-12-09T02:01:37.831Z,4.43
2018-12-09T02:01:50.543Z,4.43
2018-12-09T02:02:03.521Z,4.43
2018-12-09T02:02:16.301Z,4.43
2018-12-09T02:02:28.824Z,4.43
2018-12-09T02:02:41.223Z,4.43
2018-12-09T02:02:53.598Z,4.43
2018-12-09T02:03:06.681Z,4.43
2018-12-09T02:03:19.086Z,4.43
2018-12-09T02:03:31.462Z,4.43
2018-12-09T02:03:43.856Z,4.43
2018-12-09T02:03:56.258Z,4.43
2018-12-09T02:04:09.927Z,4.43
2018-12-09T02:04:22.352Z,4.43
2018-12-09T02:04:34.758Z,4.43
2018-12-09T02:04:47.318Z,4.43
2018-12-09T02:04:59.729Z,4.43
2018-12-09T02:05:12.839Z,4.43
2018-12-09T02:05:25.443Z,4.43
2018-12-09T02:05:37.844Z,4.43
2018-12-09T02:05:50.269Z,4.43
2018-12-09T02:06:02.694Z,4.43
2018-12-09T02:06:15.080Z,2.2
2018-12-09T02:06:28.719Z,2.2
2018-12-09T02:06:41.230Z,2.2
2018-12-09T02:06:53.742Z,2.2
2018-12-09T02:07:06.142Z,2.2
2018-12-09T02:07:18.547Z,2.2
2018-12-09T02:07:32.137Z,2.2
2018-12-09T02:07:44.614Z,2.2
2018-12-09T02:07:56.985Z,2.2
2018-12-09T02:08:09.380Z,2.2
2018-12-09T02:08:21.795Z,2.2
2018-12-09T02:08:35.072Z,2.2
2018-12-09T02:08:47.544Z,2.2
2018-12-09T02:08:59.939Z,2.2
2018-12-09T02:09:12.486Z,2.2
2018-12-09T02:09:25.003Z,2.2
2018-12-09T02:09:37.803Z,2.2
2018-12-09T02:09:50.744Z,2.2
2018-12-09T02:10:03.162Z,2.2
2018-12-09T02:10:15.567Z,2.2
2018-12-09T02:10:27.979Z,2.2
2018-12-09T02:10:40.387Z,2.2
2018-12-09T02:10:53.884Z,2.2
2018-12-09T02:11:06.304Z,2.2
2018-12-09T02:11:18.707Z,2.2
2018-12-09T02:11:31.228Z,2.2
2018-12-09T02:11:43.647Z,2.2
2018-12-09T02:11:57.302Z,2.2
2018-12-09T02:12:09.685Z,2.2
2018-12-09T02:12:22.084Z,2.2
2018-12-09T02:12:34.689Z,2.2
2018-12-09T02:12:47.090Z,2.2
2018-12-09T02:13:00.290Z,2.2
2018-12-09T02:13:12.895Z,2.2
2018-12-09T02:13:25.375Z,2.2
2018-12-09T02:13:37.773Z,2.2
2018-12-09T02:13:50.229Z,2.2
2018-12-09T02:14:02.623Z,2.2
2018-12-09T02:14:16.454Z,2.2
2018-12-09T02:14:28.834Z,2.2
2018-12-09T02:14:41.217Z,2.2
2018-12-09T02:14:53.604Z,2.2
2018-12-09T02:15:06.213Z,2.2
2018-12-09T02:15:19.537Z,2.2
2018-12-09T02:15:31.942Z,2.2
2018-12-09T02:15:44.332Z,2.2
2018-12-09T02:15:56.730Z,2.2
2018-12-09T02:16:09.158Z,1.61
2018-12-09T02:16:22.641Z,1.61
2018-12-09T02:16:35.084Z,1.61
2018-12-09T02:16:47.555Z,1.61
2018-12-09T02:16:59.989Z,1.61
2018-12-09T02:17:12.410Z,1.61
2018-12-09T02:17:25.317Z,1.61
2018-12-09T02:17:38.119Z,1.61
2018-12-09T02:17:50.533Z,1.61
2018-12-09T02:18:02.952Z,1.61
2018-12-09T02:18:15.444Z,1.61
2018-12-09T02:18:27.849Z,1.61
2018-12-09T02:18:41.665Z,1.61
2018-12-09T02:18:54.055Z,1.61
2018-12-09T02:19:06.462Z,1.61
2018-12-09T02:19:18.862Z,1.61
2018-12-09T02:19:31.286Z,1.61
2018-12-09T02:19:44.679Z,1.61
2018-12-09T02:19:57.084Z,1.61
2018-12-09T02:20:09.589Z,1.61
2018-12-09T02:20:22.049Z,1.61
2018-12-09T02:20:34.441Z,1.61
2018-12-09T02:20:47.481Z,1.61
2018-12-09T02:21:00.154Z,1.61
2018-12-09T02:21:12.568Z,1.61
2018-12-09T02:21:24.977Z,1.61
2018-12-09T02:21:37.369Z,1.61
2018-12-09T02:21:49.795Z,1.61
2018-12-09T02:22:03.403Z,1.61
2018-12-09T02:22:15.810Z,1.61
2018-12-09T02:22:28.203Z,1.61
2018-12-09T02:22:40.612Z,1.61
2018-12-09T02:22:53.024Z,1.61
2018-12-09T02:23:06.526Z,1.61
2018-12-09T02:23:18.935Z,1.61
2018-12-09T02:23:31.325Z,1.61
2018-12-09T02:23:43.719Z,1.61
2018-12-09T02:23:56.132Z,1.61
2018-12-09T02:24:09.920Z,1.61
2018-12-09T02:24:22.311Z,1.61
2018-12-09T02:24:34.703Z,1.61
2018-12-09T02:24:47.211Z,1.61
2018-12-09T02:24:59.594Z,1.61
2018-12-09T02:25:12.361Z,1.61
2018-12-09T02:25:25.140Z,1.61
2018-12-09T02:25:37.530Z,1.61
2018-12-09T02:25:50.016Z,1.61
2018-12-09T02:26:02.466Z,1.61
2018-12-09T02:26:14.960Z,2.17
2018-12-09T02:26:28.501Z,2.17
2018-12-09T02:26:40.911Z,2.17
2018-12-09T02:26:53.341Z,2.17
2018-12-09T02:27:05.750Z,2.17
2018-12-09T02:27:18.183Z,2.17
2018-12-09T02:27:31.483Z,2.17
2018-12-09T02:27:43.879Z,2.17
2018-12-09T02:27:56.546Z,2.17
2018-12-09T02:28:08.957Z,2.17
2018-12-09T02:28:21.382Z,2.17
2018-12-09T02:28:34.836Z,2.17
2018-12-09T02:28:47.668Z,2.17
2018-12-09T02:29:00.091Z,2.17
2018-12-09T02:29:12.520Z,2.17
2018-12-09T02:29:25.069Z,2.17
2018-12-09T02:29:37.497Z,2.17
2018-12-09T02:29:50.848Z,2.17
2018-12-09T02:30:03.249Z,2.17
2018-12-09T02:30:15.837Z,2.17
2018-12-09T02:30:28.686Z,2.17
2018-12-09T02:30:41.111Z,2.17
2018-12-09T02:30:54.895Z,2.17
2018-12-09T02:31:07.340Z,2.17
2018-12-09T02:31:19.768Z,2.17
2018-12-09T02:31:32.250Z,2.17
2018-12-09T02:31:44.768Z,2.17
2018-12-09T02:31:57.944Z,2.17
2018-12-09T02:32:10.347Z,2.17
2018-12-09T02:32:22.825Z,2.17
2018-12-09T02:32:35.229Z,2.17
2018-12-09T02:32:47.604Z,2.17
2018-12-09T02:33:00.551Z,2.17
2018-12-09T02:33:13.457Z,2.17
2018-12-09T02:33:25.924Z,2.17
2018-12-09T02:33:38.343Z,2.17
2018-12-09T02:33:50.865Z,2.17
2018-12-09T02:34:03.280Z,2.17
2018-12-09T02:34:17.048Z,2.17
2018-12-09T02:34:29.452Z,2.17
2018-12-09T02:34:41.863Z,2.17
2018-12-09T02:34:54.411Z,2.17
2018-12-09T02:35:06.828Z,2.17
2018-12-09T02:35:20.213Z,2.17
2018-12-09T02:35:32.672Z,2.17
2018-12-09T02:35:45.078Z,2.17
2018-12-09T02:35:57.583Z,2.17
2018-12-09T02:36:09.978Z,1.92
2018-12-09T02:36:23.468Z,1.92
2018-12-09T02:36:35.875Z,1.92
2018-12-09T02:36:48.327Z,1.92
2018-12-09T02:37:00.766Z,1.92
2018-12-09T02:37:13.278Z,1.92
2018-12-09T02:37:25.684Z,1.92
2018-12-09T02:37:38.869Z,1.92
2018-12-09T02:37:51.292Z,1.92
2018-12-09T02:38:03.804Z,1.92
2018-12-09T02:38:16.253Z,1.92
2018-12-09T02:38:28.686Z,1.92
2018-12-09T02:38:42.124Z,1.92
2018-12-09T02:38:54.550Z,1.92
2018-12-09T02:39:06.994Z,1.92
2018-12-09T02:39:19.487Z,1.92
2018-12-09T02:39:32.020Z,1.92
2018-12-09T02:39:45.142Z,1.92
2018-12-09T02:39:57.614Z,1.92
2018-12-09T02:40:10.030Z,1.92
2018-12-09T02:40:22.449Z,1.92
2018-12-09T02:40:34.858Z,1.92
2018-12-09T02:40:47.917Z,1.92
2018-12-09T02:41:01.025Z,1.92
2018-12-09T02:41:13.600Z,1.92
2018-12-09T02:41:26.018Z,1.92
2018-12-09T02:41:38.458Z,1.92
2018-12-09T02:41:50.871Z,1.92
2018-12-09T02:42:04.138Z,1.92
2018-12-09T02:42:16.625Z,1.92
2018-12-09T02:42:29.058Z,1.92
2018-12-09T02:42:41.637Z,1.92
2018-12-09T02:42:54.028Z,1.92
2018-12-09T02:43:07.432Z,1.92
2018-12-09T02:43:19.872Z,1.92
2018-12-09T02:43:32.307Z,1.92
2018-12-09T02:43:44.716Z,1.92
2018-12-09T02:43:57.178Z,1.92
2018-12-09T02:44:11.020Z,1.92
2018-12-09T02:44:23.435Z,1.92
2018-12-09T02:44:37.314Z,1.92
2018-12-09T02:44:49.695Z,1.92
2018-12-09T02:45:02.093Z,1.92
2018-12-09T02:45:15.035Z,1.92
2018-12-09T02:45:27.897Z,1.92
2018-12-09T02:45:40.331Z,1.92
2018-12-09T02:45:52.789Z,1.92
2018-12-09T02:46:05.184Z,1.92
2018-12-09T02:46:17.621Z,0.9
2018-12-09T02:46:31.129Z,0.9
2018-12-09T02:46:43.524Z,0.9
2018-12-09T02:46:55.940Z,0.9
2018-12-09T02:47:08.382Z,0.9
2018-12-09T02:47:20.884Z,0.9
2018-12-09T02:47:34.291Z,0.9
2018-12-09T02:47:46.715Z,0.9
2018-12-09T02:47:59.121Z,0.9
2018-12-09T02:48:11.527Z,0.9